sensor_id;sensor_type;location;lat;lon;timestamp;P1;durP1;ratioP1;P2;durP2;ratioP2
41532;SDS011;27262;-35.248;149.138;2023-04-24T00:01:54;2.17;;;1.98;;
41532;SDS011;27262;-35.248;149.138;2023-04-24T00:04:26;2.03;;;1.88;;
41532;SDS011;27262;-35.248;149.138;2023-04-24T00:06:56;1.63;;;1.52;;
41532;SDS011;27262;-35.248;149.138;2023-04-24T00:09:28;1.70;;;1.60;;
41532;SDS011;27262;-35.248;149.138;2023-04-24T00:11:58;1.73;;;1.63;;
41532;SDS011;27262;-35.248;149.138;2023-04-24T00:14:34;1.90;;;1.70;;
41532;SDS011;27262;-35.248;149.138;2023-04-24T00:17:04;1.70;;;1.40;;
41532;SDS011;27262;-35.248;149.138;2023-04-24T00:19:35;1.65;;;1.55;;
41532;SDS011;27262;-35.248;149.138;2023-04-24T00:22:07;1.98;;;1.50;;
41532;SDS011;27262;-35.248;149.138;2023-04-24T00:24:37;1.63;;;1.50;;
41532;SDS011;27262;-35.248;149.138;2023-04-24T00:27:07;2.00;;;1.80;;
41532;SDS011;27262;-35.248;149.138;2023-04-24T00:29:38;2.28;;;1.70;;
41532;SDS011;27262;-35.248;149.138;2023-04-24T00:32:09;4.40;;;1.60;;
41532;SDS011;27262;-35.248;149.138;2023-04-24T00:34:39;1.63;;;1.52;;
41532;SDS011;27262;-35.248;149.138;2023-04-24T00:37:10;1.60;;;1.50;;
41532;SDS011;27262;-35.248;149.138;2023-04-24T00:39:40;1.92;;;1.50;;
41532;SDS011;27262;-35.248;149.138;2023-04-24T00:42:11;2.92;;;1.50;;
41532;SDS011;27262;-35.248;149.138;2023-04-24T00:44:41;3.67;;;1.65;;
41532;SDS011;27262;-35.248;149.138;2023-04-24T00:47:12;1.98;;;1.70;;
41532;SDS011;27262;-35.248;149.138;2023-04-24T00:49:43;3.67;;;2.00;;
41532;SDS011;27262;-35.248;149.138;2023-04-24T00:52:14;1.60;;;1.50;;
41532;SDS011;27262;-35.248;149.138;2023-04-24T00:54:46;3.70;;;1.55;;
41532;SDS011;27262;-35.248;149.138;2023-04-24T00:57:16;2.03;;;1.60;;
41532;SDS011;27262;-35.248;149.138;2023-04-24T00:59:47;1.30;;;1.20;;
41532;SDS011;27262;-35.248;149.138;2023-04-24T01:02:18;2.00;;;1.45;;
41532;SDS011;27262;-35.248;149.138;2023-04-24T01:04:49;4.05;;;1.70;;
41532;SDS011;27262;-35.248;149.138;2023-04-24T01:07:20;1.65;;;1.50;;
41532;SDS011;27262;-35.248;149.138;2023-04-24T01:09:51;2.17;;;1.63;;
41532;SDS011;27262;-35.248;149.138;2023-04-24T01:12:21;3.15;;;1.45;;
41532;SDS011;27262;-35.248;149.138;2023-04-24T01:14:52;1.65;;;1.50;;
41532;SDS011;27262;-35.248;149.138;2023-04-24T01:17:23;2.20;;;1.42;;
41532;SDS011;27262;-35.248;149.138;2023-04-24T01:19:54;3.53;;;1.48;;
41532;SDS011;27262;-35.248;149.138;2023-04-24T01:22:28;3.65;;;1.65;;
41532;SDS011;27262;-35.248;149.138;2023-04-24T01:24:58;1.92;;;1.17;;
41532;SDS011;27262;-35.248;149.138;2023-04-24T01:27:29;3.65;;;1.40;;
41532;SDS011;27262;-35.248;149.138;2023-04-24T01:29:59;1.90;;;1.10;;
41532;SDS011;27262;-35.248;149.138;2023-04-24T01:32:30;2.58;;;1.40;;
41532;SDS011;27262;-35.248;149.138;2023-04-24T01:35:01;1.88;;;1.10;;
41532;SDS011;27262;-35.248;149.138;2023-04-24T01:37:32;3.42;;;1.48;;
41532;SDS011;27262;-35.248;149.138;2023-04-24T01:40:06;5.20;;;1.55;;
41532;SDS011;27262;-35.248;149.138;2023-04-24T01:42:37;4.32;;;1.15;;
41532;SDS011;27262;-35.248;149.138;2023-04-24T01:45:10;4.60;;;1.35;;
41532;SDS011;27262;-35.248;149.138;2023-04-24T01:47:43;2.60;;;1.33;;
41532;SDS011;27262;-35.248;149.138;2023-04-24T01:50:16;3.00;;;1.48;;
41532;SDS011;27262;-35.248;149.138;2023-04-24T01:52:47;3.90;;;1.45;;
41532;SDS011;27262;-35.248;149.138;2023-04-24T01:55:17;4.30;;;1.35;;
41532;SDS011;27262;-35.248;149.138;2023-04-24T01:57:48;2.20;;;1.23;;
41532;SDS011;27262;-35.248;149.138;2023-04-24T02:00:21;5.57;;;1.63;;
41532;SDS011;27262;-35.248;149.138;2023-04-24T02:02:53;4.30;;;1.58;;
41532;SDS011;27262;-35.248;149.138;2023-04-24T02:05:24;4.60;;;1.15;;
41532;SDS011;27262;-35.248;149.138;2023-04-24T02:07:55;4.75;;;1.23;;
41532;SDS011;27262;-35.248;149.138;2023-04-24T02:10:25;6.53;;;1.38;;
41532;SDS011;27262;-35.248;149.138;2023-04-24T02:12:55;3.25;;;1.17;;
41532;SDS011;27262;-35.248;149.138;2023-04-24T02:15:25;4.13;;;1.15;;
41532;SDS011;27262;-35.248;149.138;2023-04-24T02:17:55;3.28;;;1.40;;
41532;SDS011;27262;-35.248;149.138;2023-04-24T02:20:26;3.20;;;1.45;;
41532;SDS011;27262;-35.248;149.138;2023-04-24T02:22:56;2.92;;;1.20;;
41532;SDS011;27262;-35.248;149.138;2023-04-24T02:25:26;5.82;;;1.50;;
41532;SDS011;27262;-35.248;149.138;2023-04-24T02:27:57;2.45;;;0.80;;
41532;SDS011;27262;-35.248;149.138;2023-04-24T02:30:27;2.75;;;1.40;;
41532;SDS011;27262;-35.248;149.138;2023-04-24T02:32:57;7.15;;;1.27;;
41532;SDS011;27262;-35.248;149.138;2023-04-24T02:35:28;5.10;;;1.27;;
41532;SDS011;27262;-35.248;149.138;2023-04-24T02:37:58;3.38;;;1.17;;
41532;SDS011;27262;-35.248;149.138;2023-04-24T02:40:29;2.53;;;0.98;;
41532;SDS011;27262;-35.248;149.138;2023-04-24T02:42:59;2.30;;;0.88;;
41532;SDS011;27262;-35.248;149.138;2023-04-24T02:45:30;3.38;;;1.30;;
41532;SDS011;27262;-35.248;149.138;2023-04-24T02:48:02;2.80;;;1.05;;
41532;SDS011;27262;-35.248;149.138;2023-04-24T02:50:33;2.22;;;1.00;;
41532;SDS011;27262;-35.248;149.138;2023-04-24T02:53:03;3.70;;;1.08;;
41532;SDS011;27262;-35.248;149.138;2023-04-24T02:55:33;3.80;;;1.20;;
41532;SDS011;27262;-35.248;149.138;2023-04-24T02:58:04;2.63;;;1.10;;
41532;SDS011;27262;-35.248;149.138;2023-04-24T03:00:34;2.33;;;1.00;;
41532;SDS011;27262;-35.248;149.138;2023-04-24T03:03:05;3.72;;;1.35;;
41532;SDS011;27262;-35.248;149.138;2023-04-24T03:05:35;2.50;;;1.17;;
41532;SDS011;27262;-35.248;149.138;2023-04-24T03:08:06;2.75;;;1.00;;
41532;SDS011;27262;-35.248;149.138;2023-04-24T03:10:36;2.47;;;1.00;;
41532;SDS011;27262;-35.248;149.138;2023-04-24T03:13:06;2.88;;;1.10;;
41532;SDS011;27262;-35.248;149.138;2023-04-24T03:15:36;3.30;;;1.65;;
41532;SDS011;27262;-35.248;149.138;2023-04-24T03:18:07;2.80;;;1.25;;
41532;SDS011;27262;-35.248;149.138;2023-04-24T03:20:37;3.53;;;1.23;;
41532;SDS011;27262;-35.248;149.138;2023-04-24T03:23:08;5.07;;;1.08;;
41532;SDS011;27262;-35.248;149.138;2023-04-24T03:25:38;3.47;;;0.80;;
41532;SDS011;27262;-35.248;149.138;2023-04-24T03:28:11;1.85;;;0.82;;
41532;SDS011;27262;-35.248;149.138;2023-04-24T03:30:41;4.47;;;1.10;;
41532;SDS011;27262;-35.248;149.138;2023-04-24T03:33:12;3.35;;;1.30;;
41532;SDS011;27262;-35.248;149.138;2023-04-24T03:35:42;2.92;;;0.80;;
41532;SDS011;27262;-35.248;149.138;2023-04-24T03:38:13;1.65;;;0.70;;
41532;SDS011;27262;-35.248;149.138;2023-04-24T03:40:43;2.00;;;0.95;;
41532;SDS011;27262;-35.248;149.138;2023-04-24T03:43:14;2.33;;;0.80;;
41532;SDS011;27262;-35.248;149.138;2023-04-24T03:45:44;3.15;;;1.00;;
41532;SDS011;27262;-35.248;149.138;2023-04-24T03:48:14;2.83;;;1.20;;
41532;SDS011;27262;-35.248;149.138;2023-04-24T03:50:45;3.42;;;1.10;;
41532;SDS011;27262;-35.248;149.138;2023-04-24T03:53:15;2.83;;;1.17;;
41532;SDS011;27262;-35.248;149.138;2023-04-24T03:55:46;5.38;;;1.00;;
41532;SDS011;27262;-35.248;149.138;2023-04-24T03:58:16;5.05;;;0.98;;
41532;SDS011;27262;-35.248;149.138;2023-04-24T04:00:46;2.20;;;1.25;;
41532;SDS011;27262;-35.248;149.138;2023-04-24T04:03:17;5.35;;;1.20;;
41532;SDS011;27262;-35.248;149.138;2023-04-24T04:05:48;2.50;;;0.80;;
41532;SDS011;27262;-35.248;149.138;2023-04-24T04:08:18;7.10;;;1.02;;
41532;SDS011;27262;-35.248;149.138;2023-04-24T04:10:49;2.92;;;0.93;;
41532;SDS011;27262;-35.248;149.138;2023-04-24T04:13:20;3.85;;;1.15;;
41532;SDS011;27262;-35.248;149.138;2023-04-24T04:15:50;3.33;;;1.02;;
41532;SDS011;27262;-35.248;149.138;2023-04-24T04:18:20;3.90;;;1.20;;
41532;SDS011;27262;-35.248;149.138;2023-04-24T04:20:50;2.90;;;0.90;;
41532;SDS011;27262;-35.248;149.138;2023-04-24T04:23:20;2.28;;;0.80;;
41532;SDS011;27262;-35.248;149.138;2023-04-24T04:25:51;4.15;;;1.48;;
41532;SDS011;27262;-35.248;149.138;2023-04-24T04:28:21;3.70;;;1.05;;
41532;SDS011;27262;-35.248;149.138;2023-04-24T04:30:53;3.17;;;1.13;;
41532;SDS011;27262;-35.248;149.138;2023-04-24T04:33:24;3.50;;;1.52;;
41532;SDS011;27262;-35.248;149.138;2023-04-24T04:35:54;2.70;;;1.17;;
41532;SDS011;27262;-35.248;149.138;2023-04-24T04:38:29;4.20;;;1.10;;
41532;SDS011;27262;-35.248;149.138;2023-04-24T04:40:59;10.10;;;1.42;;
41532;SDS011;27262;-35.248;149.138;2023-04-24T04:43:30;4.10;;;1.50;;
41532;SDS011;27262;-35.248;149.138;2023-04-24T04:46:01;3.17;;;1.40;;
41532;SDS011;27262;-35.248;149.138;2023-04-24T04:48:31;5.68;;;1.40;;
41532;SDS011;27262;-35.248;149.138;2023-04-24T04:51:02;5.28;;;1.10;;
41532;SDS011;27262;-35.248;149.138;2023-04-24T04:53:32;5.57;;;1.25;;
41532;SDS011;27262;-35.248;149.138;2023-04-24T04:56:03;6.13;;;1.38;;
41532;SDS011;27262;-35.248;149.138;2023-04-24T04:58:33;3.85;;;1.55;;
41532;SDS011;27262;-35.248;149.138;2023-04-24T05:01:04;3.50;;;1.20;;
41532;SDS011;27262;-35.248;149.138;2023-04-24T05:03:35;2.30;;;1.00;;
41532;SDS011;27262;-35.248;149.138;2023-04-24T05:06:06;2.33;;;1.10;;
41532;SDS011;27262;-35.248;149.138;2023-04-24T05:08:36;4.13;;;1.58;;
41532;SDS011;27262;-35.248;149.138;2023-04-24T05:11:06;3.58;;;1.10;;
41532;SDS011;27262;-35.248;149.138;2023-04-24T05:13:37;3.63;;;1.63;;
41532;SDS011;27262;-35.248;149.138;2023-04-24T05:16:07;5.07;;;1.35;;
41532;SDS011;27262;-35.248;149.138;2023-04-24T05:18:38;6.47;;;1.50;;
41532;SDS011;27262;-35.248;149.138;2023-04-24T05:21:08;4.40;;;1.38;;
41532;SDS011;27262;-35.248;149.138;2023-04-24T05:23:39;4.07;;;1.10;;
41532;SDS011;27262;-35.248;149.138;2023-04-24T05:26:09;5.63;;;1.20;;
41532;SDS011;27262;-35.248;149.138;2023-04-24T05:28:39;7.68;;;1.27;;
41532;SDS011;27262;-35.248;149.138;2023-04-24T05:31:09;9.73;;;1.60;;
41532;SDS011;27262;-35.248;149.138;2023-04-24T05:33:40;8.18;;;1.75;;
41532;SDS011;27262;-35.248;149.138;2023-04-24T05:36:11;2.65;;;1.30;;
41532;SDS011;27262;-35.248;149.138;2023-04-24T05:38:41;8.20;;;1.60;;
41532;SDS011;27262;-35.248;149.138;2023-04-24T05:41:11;3.65;;;1.60;;
41532;SDS011;27262;-35.248;149.138;2023-04-24T05:43:42;1.88;;;1.48;;
41532;SDS011;27262;-35.248;149.138;2023-04-24T05:46:12;4.35;;;1.35;;
41532;SDS011;27262;-35.248;149.138;2023-04-24T05:48:42;4.82;;;1.52;;
41532;SDS011;27262;-35.248;149.138;2023-04-24T05:51:12;3.88;;;1.40;;
41532;SDS011;27262;-35.248;149.138;2023-04-24T05:53:43;5.38;;;1.65;;
41532;SDS011;27262;-35.248;149.138;2023-04-24T05:56:13;4.50;;;1.80;;
41532;SDS011;27262;-35.248;149.138;2023-04-24T05:58:45;4.47;;;1.67;;
41532;SDS011;27262;-35.248;149.138;2023-04-24T06:01:15;2.67;;;1.60;;
41532;SDS011;27262;-35.248;149.138;2023-04-24T06:03:46;2.47;;;1.35;;
41532;SDS011;27262;-35.248;149.138;2023-04-24T06:06:17;1.95;;;1.55;;
41532;SDS011;27262;-35.248;149.138;2023-04-24T06:08:48;3.33;;;1.63;;
41532;SDS011;27262;-35.248;149.138;2023-04-24T06:11:18;5.47;;;1.50;;
41532;SDS011;27262;-35.248;149.138;2023-04-24T06:13:48;3.08;;;1.38;;
41532;SDS011;27262;-35.248;149.138;2023-04-24T06:16:18;2.92;;;1.92;;
41532;SDS011;27262;-35.248;149.138;2023-04-24T06:18:49;4.45;;;1.83;;
41532;SDS011;27262;-35.248;149.138;2023-04-24T06:21:19;4.85;;;1.60;;
41532;SDS011;27262;-35.248;149.138;2023-04-24T06:23:49;3.53;;;1.40;;
41532;SDS011;27262;-35.248;149.138;2023-04-24T06:26:19;5.45;;;1.48;;
41532;SDS011;27262;-35.248;149.138;2023-04-24T06:28:50;1.90;;;1.17;;
41532;SDS011;27262;-35.248;149.138;2023-04-24T06:31:24;3.22;;;1.65;;
41532;SDS011;27262;-35.248;149.138;2023-04-24T06:33:54;3.13;;;1.85;;
41532;SDS011;27262;-35.248;149.138;2023-04-24T06:36:25;5.25;;;1.90;;
41532;SDS011;27262;-35.248;149.138;2023-04-24T06:38:56;2.17;;;1.35;;
41532;SDS011;27262;-35.248;149.138;2023-04-24T06:41:27;4.38;;;2.08;;
41532;SDS011;27262;-35.248;149.138;2023-04-24T06:43:58;3.72;;;1.70;;
41532;SDS011;27262;-35.248;149.138;2023-04-24T06:46:31;3.13;;;1.55;;
41532;SDS011;27262;-35.248;149.138;2023-04-24T06:49:02;3.00;;;1.50;;
41532;SDS011;27262;-35.248;149.138;2023-04-24T06:51:32;3.05;;;1.80;;
41532;SDS011;27262;-35.248;149.138;2023-04-24T06:54:03;4.43;;;1.65;;
41532;SDS011;27262;-35.248;149.138;2023-04-24T06:56:33;16.25;;;2.50;;
41532;SDS011;27262;-35.248;149.138;2023-04-24T06:59:03;9.48;;;2.08;;
41532;SDS011;27262;-35.248;149.138;2023-04-24T07:01:33;10.80;;;2.40;;
41532;SDS011;27262;-35.248;149.138;2023-04-24T07:04:04;7.80;;;1.80;;
41532;SDS011;27262;-35.248;149.138;2023-04-24T07:06:34;3.08;;;1.50;;
41532;SDS011;27262;-35.248;149.138;2023-04-24T07:09:05;4.47;;;1.85;;
41532;SDS011;27262;-35.248;149.138;2023-04-24T07:11:37;6.57;;;2.22;;
41532;SDS011;27262;-35.248;149.138;2023-04-24T07:14:09;4.22;;;1.58;;
41532;SDS011;27262;-35.248;149.138;2023-04-24T07:16:39;3.65;;;1.63;;
41532;SDS011;27262;-35.248;149.138;2023-04-24T07:19:09;5.10;;;1.85;;
41532;SDS011;27262;-35.248;149.138;2023-04-24T07:21:41;3.90;;;1.38;;
41532;SDS011;27262;-35.248;149.138;2023-04-24T07:24:11;4.88;;;1.58;;
41532;SDS011;27262;-35.248;149.138;2023-04-24T07:26:41;3.88;;;1.42;;
41532;SDS011;27262;-35.248;149.138;2023-04-24T07:29:12;3.75;;;1.60;;
41532;SDS011;27262;-35.248;149.138;2023-04-24T07:31:43;5.05;;;1.63;;
41532;SDS011;27262;-35.248;149.138;2023-04-24T07:34:14;1.70;;;1.50;;
41532;SDS011;27262;-35.248;149.138;2023-04-24T07:36:44;7.97;;;1.70;;
41532;SDS011;27262;-35.248;149.138;2023-04-24T07:39:15;2.55;;;1.50;;
41532;SDS011;27262;-35.248;149.138;2023-04-24T07:41:46;2.42;;;1.25;;
41532;SDS011;27262;-35.248;149.138;2023-04-24T07:44:16;3.15;;;1.75;;
41532;SDS011;27262;-35.248;149.138;2023-04-24T07:46:46;4.90;;;1.75;;
41532;SDS011;27262;-35.248;149.138;2023-04-24T07:49:17;3.63;;;1.48;;
41532;SDS011;27262;-35.248;149.138;2023-04-24T07:51:48;3.80;;;1.83;;
41532;SDS011;27262;-35.248;149.138;2023-04-24T07:54:20;4.10;;;1.90;;
41532;SDS011;27262;-35.248;149.138;2023-04-24T07:56:51;3.85;;;1.65;;
41532;SDS011;27262;-35.248;149.138;2023-04-24T07:59:21;3.53;;;1.33;;
41532;SDS011;27262;-35.248;149.138;2023-04-24T08:01:51;2.97;;;1.67;;
41532;SDS011;27262;-35.248;149.138;2023-04-24T08:04:22;3.13;;;1.60;;
41532;SDS011;27262;-35.248;149.138;2023-04-24T08:06:53;2.05;;;1.27;;
41532;SDS011;27262;-35.248;149.138;2023-04-24T08:09:24;2.45;;;1.40;;
41532;SDS011;27262;-35.248;149.138;2023-04-24T08:11:54;4.20;;;1.55;;
41532;SDS011;27262;-35.248;149.138;2023-04-24T08:14:26;2.92;;;1.58;;
41532;SDS011;27262;-35.248;149.138;2023-04-24T08:16:56;3.80;;;1.48;;
41532;SDS011;27262;-35.248;149.138;2023-04-24T08:19:28;2.83;;;1.50;;
41532;SDS011;27262;-35.248;149.138;2023-04-24T08:21:58;2.10;;;1.40;;
41532;SDS011;27262;-35.248;149.138;2023-04-24T08:24:29;2.97;;;1.75;;
41532;SDS011;27262;-35.248;149.138;2023-04-24T08:27:00;1.42;;;1.20;;
41532;SDS011;27262;-35.248;149.138;2023-04-24T08:29:30;1.83;;;1.40;;
41532;SDS011;27262;-35.248;149.138;2023-04-24T08:32:01;3.63;;;1.35;;
41532;SDS011;27262;-35.248;149.138;2023-04-24T08:34:31;3.63;;;1.70;;
41532;SDS011;27262;-35.248;149.138;2023-04-24T08:37:02;3.88;;;1.50;;
41532;SDS011;27262;-35.248;149.138;2023-04-24T08:39:33;3.22;;;1.65;;
41532;SDS011;27262;-35.248;149.138;2023-04-24T08:42:04;2.58;;;1.60;;
41532;SDS011;27262;-35.248;149.138;2023-04-24T08:44:36;1.40;;;0.90;;
41532;SDS011;27262;-35.248;149.138;2023-04-24T08:47:07;2.17;;;1.20;;
41532;SDS011;27262;-35.248;149.138;2023-04-24T08:49:39;2.22;;;1.50;;
41532;SDS011;27262;-35.248;149.138;2023-04-24T08:52:10;2.35;;;1.60;;
41532;SDS011;27262;-35.248;149.138;2023-04-24T08:54:42;2.15;;;1.48;;
41532;SDS011;27262;-35.248;149.138;2023-04-24T08:57:14;2.65;;;1.35;;
41532;SDS011;27262;-35.248;149.138;2023-04-24T08:59:45;2.63;;;1.65;;
41532;SDS011;27262;-35.248;149.138;2023-04-24T09:02:16;1.92;;;1.13;;
41532;SDS011;27262;-35.248;149.138;2023-04-24T09:04:47;3.03;;;1.20;;
41532;SDS011;27262;-35.248;149.138;2023-04-24T09:07:19;2.85;;;1.38;;
41532;SDS011;27262;-35.248;149.138;2023-04-24T09:09:51;1.80;;;1.27;;
41532;SDS011;27262;-35.248;149.138;2023-04-24T09:12:22;2.42;;;1.38;;
41532;SDS011;27262;-35.248;149.138;2023-04-24T09:14:52;2.80;;;1.40;;
41532;SDS011;27262;-35.248;149.138;2023-04-24T09:17:24;2.20;;;1.55;;
41532;SDS011;27262;-35.248;149.138;2023-04-24T09:19:55;2.10;;;1.50;;
41532;SDS011;27262;-35.248;149.138;2023-04-24T09:22:25;2.03;;;1.30;;
41532;SDS011;27262;-35.248;149.138;2023-04-24T09:25:02;2.95;;;1.30;;
41532;SDS011;27262;-35.248;149.138;2023-04-24T09:27:35;4.38;;;1.50;;
41532;SDS011;27262;-35.248;149.138;2023-04-24T09:30:06;1.73;;;1.33;;
41532;SDS011;27262;-35.248;149.138;2023-04-24T09:32:37;2.80;;;1.40;;
41532;SDS011;27262;-35.248;149.138;2023-04-24T09:35:08;2.13;;;1.40;;
41532;SDS011;27262;-35.248;149.138;2023-04-24T09:37:46;1.98;;;1.58;;
41532;SDS011;27262;-35.248;149.138;2023-04-24T09:40:18;1.42;;;1.20;;
41532;SDS011;27262;-35.248;149.138;2023-04-24T09:42:53;3.13;;;1.08;;
41532;SDS011;27262;-35.248;149.138;2023-04-24T09:45:36;2.05;;;1.40;;
41532;SDS011;27262;-35.248;149.138;2023-04-24T09:48:10;2.30;;;1.40;;
41532;SDS011;27262;-35.248;149.138;2023-04-24T09:50:42;1.85;;;1.25;;
41532;SDS011;27262;-35.248;149.138;2023-04-24T09:53:15;2.15;;;1.25;;
41532;SDS011;27262;-35.248;149.138;2023-04-24T09:55:52;3.03;;;1.42;;
41532;SDS011;27262;-35.248;149.138;2023-04-24T09:58:26;1.88;;;1.42;;
41532;SDS011;27262;-35.248;149.138;2023-04-24T10:00:57;2.00;;;1.13;;
41532;SDS011;27262;-35.248;149.138;2023-04-24T10:03:31;1.92;;;1.27;;
41532;SDS011;27262;-35.248;149.138;2023-04-24T10:06:03;3.38;;;1.52;;
41532;SDS011;27262;-35.248;149.138;2023-04-24T10:08:37;2.28;;;1.35;;
41532;SDS011;27262;-35.248;149.138;2023-04-24T10:11:07;1.25;;;1.00;;
41532;SDS011;27262;-35.248;149.138;2023-04-24T10:13:39;2.65;;;1.63;;
41532;SDS011;27262;-35.248;149.138;2023-04-24T10:16:11;2.08;;;1.30;;
41532;SDS011;27262;-35.248;149.138;2023-04-24T10:18:42;1.90;;;1.40;;
41532;SDS011;27262;-35.248;149.138;2023-04-24T10:21:13;1.60;;;1.10;;
41532;SDS011;27262;-35.248;149.138;2023-04-24T10:23:46;1.88;;;1.20;;
41532;SDS011;27262;-35.248;149.138;2023-04-24T10:26:17;1.48;;;1.00;;
41532;SDS011;27262;-35.248;149.138;2023-04-24T10:28:48;2.13;;;1.55;;
41532;SDS011;27262;-35.248;149.138;2023-04-24T10:31:19;1.80;;;1.15;;
41532;SDS011;27262;-35.248;149.138;2023-04-24T10:33:51;2.03;;;1.00;;
41532;SDS011;27262;-35.248;149.138;2023-04-24T10:36:22;1.65;;;1.20;;
41532;SDS011;27262;-35.248;149.138;2023-04-24T10:38:55;2.47;;;1.20;;
41532;SDS011;27262;-35.248;149.138;2023-04-24T10:41:28;1.42;;;1.08;;
41532;SDS011;27262;-35.248;149.138;2023-04-24T10:46:44;2.55;;;1.10;;
41532;SDS011;27262;-35.248;149.138;2023-04-24T10:49:19;2.45;;;1.10;;
41532;SDS011;27262;-35.248;149.138;2023-04-24T10:52:02;1.27;;;1.10;;
41532;SDS011;27262;-35.248;149.138;2023-04-24T10:54:36;1.00;;;0.90;;
41532;SDS011;27262;-35.248;149.138;2023-04-24T10:59:51;1.50;;;1.20;;
41532;SDS011;27262;-35.248;149.138;2023-04-24T11:02:40;1.55;;;1.05;;
41532;SDS011;27262;-35.248;149.138;2023-04-24T11:05:18;1.73;;;1.08;;
41532;SDS011;27262;-35.248;149.138;2023-04-24T11:10:57;1.02;;;0.93;;
41532;SDS011;27262;-35.248;149.138;2023-04-24T11:14:14;2.03;;;0.98;;
41532;SDS011;27262;-35.248;149.138;2023-04-24T11:21:45;2.60;;;1.10;;
41532;SDS011;27262;-35.248;149.138;2023-04-24T11:24:32;1.30;;;1.00;;
41532;SDS011;27262;-35.248;149.138;2023-04-24T11:27:09;1.60;;;1.13;;
41532;SDS011;27262;-35.248;149.138;2023-04-24T11:32:30;2.03;;;1.27;;
41532;SDS011;27262;-35.248;149.138;2023-04-24T11:35:16;1.23;;;1.13;;
41532;SDS011;27262;-35.248;149.138;2023-04-24T11:37:50;1.83;;;1.02;;
41532;SDS011;27262;-35.248;149.138;2023-04-24T11:40:24;1.88;;;1.10;;
41532;SDS011;27262;-35.248;149.138;2023-04-24T11:42:54;2.03;;;1.10;;
41532;SDS011;27262;-35.248;149.138;2023-04-24T11:45:25;2.47;;;1.05;;
41532;SDS011;27262;-35.248;149.138;2023-04-24T11:47:58;1.70;;;1.25;;
41532;SDS011;27262;-35.248;149.138;2023-04-24T11:50:28;5.25;;;1.17;;
41532;SDS011;27262;-35.248;149.138;2023-04-24T11:52:59;1.98;;;0.93;;
41532;SDS011;27262;-35.248;149.138;2023-04-24T11:55:30;1.52;;;0.90;;
41532;SDS011;27262;-35.248;149.138;2023-04-24T11:58:00;1.33;;;0.95;;
41532;SDS011;27262;-35.248;149.138;2023-04-24T12:00:31;2.10;;;1.10;;
41532;SDS011;27262;-35.248;149.138;2023-04-24T12:03:06;3.38;;;1.02;;
41532;SDS011;27262;-35.248;149.138;2023-04-24T12:05:38;1.13;;;0.90;;
41532;SDS011;27262;-35.248;149.138;2023-04-24T12:08:09;2.63;;;1.20;;
41532;SDS011;27262;-35.248;149.138;2023-04-24T12:10:39;2.03;;;0.80;;
41532;SDS011;27262;-35.248;149.138;2023-04-24T12:13:10;2.15;;;1.13;;
41532;SDS011;27262;-35.248;149.138;2023-04-24T12:15:40;3.10;;;1.10;;
41532;SDS011;27262;-35.248;149.138;2023-04-24T12:18:14;1.90;;;1.42;;
41532;SDS011;27262;-35.248;149.138;2023-04-24T12:20:45;2.05;;;1.10;;
41532;SDS011;27262;-35.248;149.138;2023-04-24T12:23:15;0.98;;;0.80;;
41532;SDS011;27262;-35.248;149.138;2023-04-24T12:26:04;1.52;;;1.20;;
41532;SDS011;27262;-35.248;149.138;2023-04-24T12:28:35;1.95;;;0.88;;
41532;SDS011;27262;-35.248;149.138;2023-04-24T12:31:07;4.05;;;1.30;;
41532;SDS011;27262;-35.248;149.138;2023-04-24T12:33:37;1.45;;;1.10;;
41532;SDS011;27262;-35.248;149.138;2023-04-24T12:36:09;2.35;;;1.20;;
41532;SDS011;27262;-35.248;149.138;2023-04-24T12:38:43;4.00;;;1.20;;
41532;SDS011;27262;-35.248;149.138;2023-04-24T12:41:15;4.35;;;1.45;;
41532;SDS011;27262;-35.248;149.138;2023-04-24T12:43:54;1.42;;;1.10;;
41532;SDS011;27262;-35.248;149.138;2023-04-24T12:46:24;2.72;;;1.10;;
41532;SDS011;27262;-35.248;149.138;2023-04-24T12:48:54;1.58;;;1.20;;
41532;SDS011;27262;-35.248;149.138;2023-04-24T12:51:26;3.22;;;1.23;;
41532;SDS011;27262;-35.248;149.138;2023-04-24T12:53:57;2.38;;;0.98;;
41532;SDS011;27262;-35.248;149.138;2023-04-24T12:56:27;1.77;;;1.08;;
41532;SDS011;27262;-35.248;149.138;2023-04-24T12:58:58;2.28;;;1.20;;
41532;SDS011;27262;-35.248;149.138;2023-04-24T13:01:28;1.23;;;1.00;;
41532;SDS011;27262;-35.248;149.138;2023-04-24T13:03:58;2.65;;;1.02;;
41532;SDS011;27262;-35.248;149.138;2023-04-24T13:06:29;3.53;;;1.20;;
41532;SDS011;27262;-35.248;149.138;2023-04-24T13:09:00;3.67;;;1.27;;
41532;SDS011;27262;-35.248;149.138;2023-04-24T13:11:30;2.65;;;1.20;;
41532;SDS011;27262;-35.248;149.138;2023-04-24T13:14:01;1.33;;;1.10;;
41532;SDS011;27262;-35.248;149.138;2023-04-24T13:16:31;1.50;;;1.05;;
41532;SDS011;27262;-35.248;149.138;2023-04-24T13:19:02;2.60;;;1.20;;
41532;SDS011;27262;-35.248;149.138;2023-04-24T13:21:32;4.05;;;1.35;;
41532;SDS011;27262;-35.248;149.138;2023-04-24T13:24:02;1.92;;;1.30;;
41532;SDS011;27262;-35.248;149.138;2023-04-24T13:26:34;2.53;;;1.13;;
41532;SDS011;27262;-35.248;149.138;2023-04-24T13:29:04;2.33;;;1.23;;
41532;SDS011;27262;-35.248;149.138;2023-04-24T13:31:34;1.48;;;1.10;;
41532;SDS011;27262;-35.248;149.138;2023-04-24T13:34:05;2.40;;;1.25;;
41532;SDS011;27262;-35.248;149.138;2023-04-24T13:36:35;2.33;;;1.10;;
41532;SDS011;27262;-35.248;149.138;2023-04-24T13:39:06;2.55;;;1.20;;
41532;SDS011;27262;-35.248;149.138;2023-04-24T13:41:36;1.25;;;1.13;;
41532;SDS011;27262;-35.248;149.138;2023-04-24T13:44:06;2.08;;;1.10;;
41532;SDS011;27262;-35.248;149.138;2023-04-24T13:46:37;1.38;;;0.90;;
41532;SDS011;27262;-35.248;149.138;2023-04-24T13:49:07;0.98;;;0.77;;
41532;SDS011;27262;-35.248;149.138;2023-04-24T13:51:38;3.58;;;1.13;;
41532;SDS011;27262;-35.248;149.138;2023-04-24T13:54:09;2.40;;;1.00;;
41532;SDS011;27262;-35.248;149.138;2023-04-24T13:56:40;1.30;;;1.08;;
41532;SDS011;27262;-35.248;149.138;2023-04-24T13:59:12;1.77;;;1.02;;
41532;SDS011;27262;-35.248;149.138;2023-04-24T14:01:42;2.70;;;1.00;;
41532;SDS011;27262;-35.248;149.138;2023-04-24T14:04:13;1.75;;;1.10;;
41532;SDS011;27262;-35.248;149.138;2023-04-24T14:06:44;1.50;;;1.00;;
41532;SDS011;27262;-35.248;149.138;2023-04-24T14:09:14;1.58;;;1.08;;
41532;SDS011;27262;-35.248;149.138;2023-04-24T14:11:44;1.70;;;1.20;;
41532;SDS011;27262;-35.248;149.138;2023-04-24T14:14:15;2.17;;;1.02;;
41532;SDS011;27262;-35.248;149.138;2023-04-24T14:16:45;1.73;;;1.10;;
41532;SDS011;27262;-35.248;149.138;2023-04-24T14:19:15;0.93;;;0.88;;
41532;SDS011;27262;-35.248;149.138;2023-04-24T14:21:45;1.27;;;1.17;;
41532;SDS011;27262;-35.248;149.138;2023-04-24T14:24:16;1.55;;;1.10;;
41532;SDS011;27262;-35.248;149.138;2023-04-24T14:26:46;2.17;;;1.10;;
41532;SDS011;27262;-35.248;149.138;2023-04-24T14:29:16;2.67;;;1.08;;
41532;SDS011;27262;-35.248;149.138;2023-04-24T14:31:48;1.73;;;1.15;;
41532;SDS011;27262;-35.248;149.138;2023-04-24T14:34:18;1.65;;;1.10;;
41532;SDS011;27262;-35.248;149.138;2023-04-24T14:36:48;1.10;;;1.00;;
41532;SDS011;27262;-35.248;149.138;2023-04-24T14:39:18;1.27;;;1.02;;
41532;SDS011;27262;-35.248;149.138;2023-04-24T14:41:49;2.88;;;1.08;;
41532;SDS011;27262;-35.248;149.138;2023-04-24T14:44:19;1.08;;;0.70;;
41532;SDS011;27262;-35.248;149.138;2023-04-24T14:46:50;0.95;;;0.93;;
41532;SDS011;27262;-35.248;149.138;2023-04-24T14:49:20;1.17;;;1.02;;